sensor_id;sensor_type;location;lat;lon;timestamp;temperature;humidity
32139;DHT22;18644;48.700;9.210;2023-08-06T00:01:48;19.90;60.40
32139;DHT22;18644;48.700;9.210;2023-08-06T00:04:19;19.80;60.10
32139;DHT22;18644;48.700;9.210;2023-08-06T00:06:46;19.80;60.00
32139;DHT22;18644;48.700;9.210;2023-08-06T00:09:12;19.70;59.80
32139;DHT22;18644;48.700;9.210;2023-08-06T00:11:41;19.70;59.80
32139;DHT22;18644;48.700;9.210;2023-08-06T00:14:09;19.70;59.80
32139;DHT22;18644;48.700;9.210;2023-08-06T00:16:36;19.60;59.70
32139;DHT22;18644;48.700;9.210;2023-08-06T00:19:03;19.50;59.70
32139;DHT22;18644;48.700;9.210;2023-08-06T00:21:30;19.50;59.60
32139;DHT22;18644;48.700;9.210;2023-08-06T00:23:56;19.40;59.60
32139;DHT22;18644;48.700;9.210;2023-08-06T00:26:23;19.40;59.60
32139;DHT22;18644;48.700;9.210;2023-08-06T00:28:52;19.30;59.40
32139;DHT22;18644;48.700;9.210;2023-08-06T00:31:19;19.30;59.40
32139;DHT22;18644;48.700;9.210;2023-08-06T00:33:45;19.20;59.40
32139;DHT22;18644;48.700;9.210;2023-08-06T00:36:12;19.10;59.30
32139;DHT22;18644;48.700;9.210;2023-08-06T00:38:39;19.10;59.30
32139;DHT22;18644;48.700;9.210;2023-08-06T00:41:06;19.00;59.30
32139;DHT22;18644;48.700;9.210;2023-08-06T00:43:33;18.90;59.20
32139;DHT22;18644;48.700;9.210;2023-08-06T00:46:02;18.90;59.40
32139;DHT22;18644;48.700;9.210;2023-08-06T00:48:29;18.80;59.40
32139;DHT22;18644;48.700;9.210;2023-08-06T00:50:56;18.80;59.50
32139;DHT22;18644;48.700;9.210;2023-08-06T00:53:23;18.70;59.50
32139;DHT22;18644;48.700;9.210;2023-08-06T00:55:50;18.70;59.60
32139;DHT22;18644;48.700;9.210;2023-08-06T00:58:17;18.60;59.60
32139;DHT22;18644;48.700;9.210;2023-08-06T01:00:45;18.60;59.60
32139;DHT22;18644;48.700;9.210;2023-08-06T01:03:13;18.50;59.50
32139;DHT22;18644;48.700;9.210;2023-08-06T01:05:41;18.50;59.60
32139;DHT22;18644;48.700;9.210;2023-08-06T01:08:18;18.40;59.60
32139;DHT22;18644;48.700;9.210;2023-08-06T01:10:51;18.40;59.80
32139;DHT22;18644;48.700;9.210;2023-08-06T01:13:26;18.40;59.90
32139;DHT22;18644;48.700;9.210;2023-08-06T01:15:59;18.30;59.80
32139;DHT22;18644;48.700;9.210;2023-08-06T01:18:27;18.30;59.30
32139;DHT22;18644;48.700;9.210;2023-08-06T01:20:55;18.20;59.30
32139;DHT22;18644;48.700;9.210;2023-08-06T01:23:23;18.20;59.40
32139;DHT22;18644;48.700;9.210;2023-08-06T01:25:56;18.10;59.50
32139;DHT22;18644;48.700;9.210;2023-08-06T01:28:36;18.00;59.50
32139;DHT22;18644;48.700;9.210;2023-08-06T01:31:10;18.00;59.70
32139;DHT22;18644;48.700;9.210;2023-08-06T01:33:44;17.90;59.70
32139;DHT22;18644;48.700;9.210;2023-08-06T01:36:15;17.90;60.00
32139;DHT22;18644;48.700;9.210;2023-08-06T01:38:44;17.90;60.20
32139;DHT22;18644;48.700;9.210;2023-08-06T01:41:11;17.80;60.20
32139;DHT22;18644;48.700;9.210;2023-08-06T01:43:38;17.80;60.30
32139;DHT22;18644;48.700;9.210;2023-08-06T01:46:05;17.80;60.40
32139;DHT22;18644;48.700;9.210;2023-08-06T01:48:32;17.70;60.40
32139;DHT22;18644;48.700;9.210;2023-08-06T01:50:59;17.70;60.50
32139;DHT22;18644;48.700;9.210;2023-08-06T01:53:27;17.70;60.60
32139;DHT22;18644;48.700;9.210;2023-08-06T01:55:54;17.70;60.60
32139;DHT22;18644;48.700;9.210;2023-08-06T01:58:21;17.70;60.60
32139;DHT22;18644;48.700;9.210;2023-08-06T02:00:47;17.70;60.60
32139;DHT22;18644;48.700;9.210;2023-08-06T02:03:14;17.60;60.60
32139;DHT22;18644;48.700;9.210;2023-08-06T02:05:42;17.60;60.60
32139;DHT22;18644;48.700;9.210;2023-08-06T02:08:09;17.60;60.70
32139;DHT22;18644;48.700;9.210;2023-08-06T02:10:37;17.60;60.70
32139;DHT22;18644;48.700;9.210;2023-08-06T02:13:04;17.50;60.80
32139;DHT22;18644;48.700;9.210;2023-08-06T02:15:31;17.50;60.80
32139;DHT22;18644;48.700;9.210;2023-08-06T02:17:58;17.50;60.80
32139;DHT22;18644;48.700;9.210;2023-08-06T02:20:25;17.40;60.70
32139;DHT22;18644;48.700;9.210;2023-08-06T02:22:51;17.40;60.80
32139;DHT22;18644;48.700;9.210;2023-08-06T02:25:21;17.40;60.80
32139;DHT22;18644;48.700;9.210;2023-08-06T02:27:49;17.30;60.80
32139;DHT22;18644;48.700;9.210;2023-08-06T02:30:16;17.30;60.90
32139;DHT22;18644;48.700;9.210;2023-08-06T02:32:44;17.30;60.90
32139;DHT22;18644;48.700;9.210;2023-08-06T02:35:11;17.20;61.00
32139;DHT22;18644;48.700;9.210;2023-08-06T02:37:37;17.20;61.00
32139;DHT22;18644;48.700;9.210;2023-08-06T02:40:05;17.20;61.10
32139;DHT22;18644;48.700;9.210;2023-08-06T02:42:33;17.20;61.20
32139;DHT22;18644;48.700;9.210;2023-08-06T02:45:01;17.20;61.30
32139;DHT22;18644;48.700;9.210;2023-08-06T02:47:28;17.10;61.30
32139;DHT22;18644;48.700;9.210;2023-08-06T02:49:55;17.10;61.30
32139;DHT22;18644;48.700;9.210;2023-08-06T02:52:22;17.10;61.30
32139;DHT22;18644;48.700;9.210;2023-08-06T02:54:49;17.00;61.30
32139;DHT22;18644;48.700;9.210;2023-08-06T02:57:16;17.00;61.40
32139;DHT22;18644;48.700;9.210;2023-08-06T02:59:43;16.90;61.30
32139;DHT22;18644;48.700;9.210;2023-08-06T03:02:11;17.00;62.10
32139;DHT22;18644;48.700;9.210;2023-08-06T03:04:38;16.90;61.20
32139;DHT22;18644;48.700;9.210;2023-08-06T03:07:05;16.90;61.30
32139;DHT22;18644;48.700;9.210;2023-08-06T03:09:32;16.90;61.30
32139;DHT22;18644;48.700;9.210;2023-08-06T03:11:59;16.80;61.40
32139;DHT22;18644;48.700;9.210;2023-08-06T03:14:26;16.80;61.50
32139;DHT22;18644;48.700;9.210;2023-08-06T03:16:53;16.80;61.60
32139;DHT22;18644;48.700;9.210;2023-08-06T03:19:21;16.70;62.50
32139;DHT22;18644;48.700;9.210;2023-08-06T03:21:48;16.70;62.00
32139;DHT22;18644;48.700;9.210;2023-08-06T03:24:15;16.70;62.10
32139;DHT22;18644;48.700;9.210;2023-08-06T03:26:42;16.70;62.30
32139;DHT22;18644;48.700;9.210;2023-08-06T03:29:09;16.80;62.50
32139;DHT22;18644;48.700;9.210;2023-08-06T03:31:35;16.80;62.70
32139;DHT22;18644;48.700;9.210;2023-08-06T03:34:02;16.80;62.90
32139;DHT22;18644;48.700;9.210;2023-08-06T03:36:31;16.80;63.00
32139;DHT22;18644;48.700;9.210;2023-08-06T03:38:57;16.80;63.10
32139;DHT22;18644;48.700;9.210;2023-08-06T03:41:24;16.80;63.30
32139;DHT22;18644;48.700;9.210;2023-08-06T03:43:51;16.80;63.30
32139;DHT22;18644;48.700;9.210;2023-08-06T03:46:18;16.90;63.40
32139;DHT22;18644;48.700;9.210;2023-08-06T03:48:45;16.90;63.50
32139;DHT22;18644;48.700;9.210;2023-08-06T03:51:12;16.90;63.50
32139;DHT22;18644;48.700;9.210;2023-08-06T03:53:40;16.90;63.60
32139;DHT22;18644;48.700;9.210;2023-08-06T03:56:07;16.90;63.50
32139;DHT22;18644;48.700;9.210;2023-08-06T03:58:34;17.00;63.50
32139;DHT22;18644;48.700;9.210;2023-08-06T04:01:01;17.00;63.40
32139;DHT22;18644;48.700;9.210;2023-08-06T04:03:29;17.00;63.50
32139;DHT22;18644;48.700;9.210;2023-08-06T04:05:56;17.00;63.50
32139;DHT22;18644;48.700;9.210;2023-08-06T04:08:22;17.00;63.60
32139;DHT22;18644;48.700;9.210;2023-08-06T04:10:51;17.00;63.50
32139;DHT22;18644;48.700;9.210;2023-08-06T04:13:19;17.10;63.60
32139;DHT22;18644;48.700;9.210;2023-08-06T04:15:46;17.10;63.60
32139;DHT22;18644;48.700;9.210;2023-08-06T04:18:13;17.10;63.70
32139;DHT22;18644;48.700;9.210;2023-08-06T04:20:43;17.10;63.70
32139;DHT22;18644;48.700;9.210;2023-08-06T04:23:11;17.20;63.60
32139;DHT22;18644;48.700;9.210;2023-08-06T04:25:38;17.20;63.50
32139;DHT22;18644;48.700;9.210;2023-08-06T04:28:06;17.20;63.60
32139;DHT22;18644;48.700;9.210;2023-08-06T04:30:34;17.20;63.80
32139;DHT22;18644;48.700;9.210;2023-08-06T04:33:01;17.20;63.80
32139;DHT22;18644;48.700;9.210;2023-08-06T04:35:28;17.30;63.80
32139;DHT22;18644;48.700;9.210;2023-08-06T04:37:54;17.30;63.80
32139;DHT22;18644;48.700;9.210;2023-08-06T04:40:21;17.30;63.80
32139;DHT22;18644;48.700;9.210;2023-08-06T04:42:48;17.30;63.90
32139;DHT22;18644;48.700;9.210;2023-08-06T04:45:17;17.30;63.90
32139;DHT22;18644;48.700;9.210;2023-08-06T04:47:43;17.30;64.10
32139;DHT22;18644;48.700;9.210;2023-08-06T04:50:10;17.30;64.00
32139;DHT22;18644;48.700;9.210;2023-08-06T04:52:37;17.30;64.10
32139;DHT22;18644;48.700;9.210;2023-08-06T04:55:05;17.30;64.20
32139;DHT22;18644;48.700;9.210;2023-08-06T04:57:32;17.40;64.40
32139;DHT22;18644;48.700;9.210;2023-08-06T04:59:59;17.40;64.30
32139;DHT22;18644;48.700;9.210;2023-08-06T05:02:27;17.40;64.40
32139;DHT22;18644;48.700;9.210;2023-08-06T05:04:54;17.40;64.40
32139;DHT22;18644;48.700;9.210;2023-08-06T05:07:21;17.40;64.30
32139;DHT22;18644;48.700;9.210;2023-08-06T05:09:48;17.40;64.40
32139;DHT22;18644;48.700;9.210;2023-08-06T05:12:15;17.40;64.30
32139;DHT22;18644;48.700;9.210;2023-08-06T05:14:42;17.40;64.20
32139;DHT22;18644;48.700;9.210;2023-08-06T05:17:09;17.40;64.20
32139;DHT22;18644;48.700;9.210;2023-08-06T05:19:37;17.40;64.10
32139;DHT22;18644;48.700;9.210;2023-08-06T05:22:04;17.40;64.10
32139;DHT22;18644;48.700;9.210;2023-08-06T05:24:31;17.40;64.10
32139;DHT22;18644;48.700;9.210;2023-08-06T05:26:58;17.40;64.00
32139;DHT22;18644;48.700;9.210;2023-08-06T05:29:25;17.40;64.00
32139;DHT22;18644;48.700;9.210;2023-08-06T05:31:52;17.40;64.00
32139;DHT22;18644;48.700;9.210;2023-08-06T05:34:19;17.50;64.30
32139;DHT22;18644;48.700;9.210;2023-08-06T05:36:47;17.50;64.50
32139;DHT22;18644;48.700;9.210;2023-08-06T05:39:14;17.50;64.70
32139;DHT22;18644;48.700;9.210;2023-08-06T05:41:41;17.60;65.10
32139;DHT22;18644;48.700;9.210;2023-08-06T05:44:08;17.70;65.60
32139;DHT22;18644;48.700;9.210;2023-08-06T05:46:35;17.70;65.60
32139;DHT22;18644;48.700;9.210;2023-08-06T05:49:02;17.80;65.50
32139;DHT22;18644;48.700;9.210;2023-08-06T05:51:29;17.90;65.20
32139;DHT22;18644;48.700;9.210;2023-08-06T05:53:57;18.00;65.00
32139;DHT22;18644;48.700;9.210;2023-08-06T05:56:27;18.00;64.80
32139;DHT22;18644;48.700;9.210;2023-08-06T05:58:54;18.10;64.80
32139;DHT22;18644;48.700;9.210;2023-08-06T06:01:20;18.10;64.60
32139;DHT22;18644;48.700;9.210;2023-08-06T06:03:47;18.20;64.40
32139;DHT22;18644;48.700;9.210;2023-08-06T06:06:14;18.20;64.20
32139;DHT22;18644;48.700;9.210;2023-08-06T06:08:42;18.30;64.00
32139;DHT22;18644;48.700;9.210;2023-08-06T06:11:10;18.20;63.80
32139;DHT22;18644;48.700;9.210;2023-08-06T06:13:37;18.30;63.80
32139;DHT22;18644;48.700;9.210;2023-08-06T06:16:04;18.30;63.70
32139;DHT22;18644;48.700;9.210;2023-08-06T06:18:31;18.40;63.50
32139;DHT22;18644;48.700;9.210;2023-08-06T06:20:58;18.30;63.50
32139;DHT22;18644;48.700;9.210;2023-08-06T06:23:25;18.40;63.70
32139;DHT22;18644;48.700;9.210;2023-08-06T06:25:52;18.40;63.70
32139;DHT22;18644;48.700;9.210;2023-08-06T06:28:20;18.50;63.50
32139;DHT22;18644;48.700;9.210;2023-08-06T06:30:48;18.40;63.40
32139;DHT22;18644;48.700;9.210;2023-08-06T06:33:15;18.50;63.40
32139;DHT22;18644;48.700;9.210;2023-08-06T06:35:42;18.50;63.40
32139;DHT22;18644;48.700;9.210;2023-08-06T06:38:09;18.50;63.40
32139;DHT22;18644;48.700;9.210;2023-08-06T06:40:36;18.50;63.20
32139;DHT22;18644;48.700;9.210;2023-08-06T06:43:03;18.50;63.10
32139;DHT22;18644;48.700;9.210;2023-08-06T06:45:31;18.50;63.30
32139;DHT22;18644;48.700;9.210;2023-08-06T06:47:58;18.50;63.20
32139;DHT22;18644;48.700;9.210;2023-08-06T06:50:25;18.50;63.20
32139;DHT22;18644;48.700;9.210;2023-08-06T06:52:52;18.50;63.30
32139;DHT22;18644;48.700;9.210;2023-08-06T06:55:19;18.50;63.40
32139;DHT22;18644;48.700;9.210;2023-08-06T06:57:45;18.50;63.50
32139;DHT22;18644;48.700;9.210;2023-08-06T07:00:13;18.60;63.50
32139;DHT22;18644;48.700;9.210;2023-08-06T07:02:42;18.60;63.30
32139;DHT22;18644;48.700;9.210;2023-08-06T07:05:09;18.60;63.30
32139;DHT22;18644;48.700;9.210;2023-08-06T07:07:36;18.60;63.10
32139;DHT22;18644;48.700;9.210;2023-08-06T07:10:03;18.60;63.10
32139;DHT22;18644;48.700;9.210;2023-08-06T07:12:31;18.60;63.10
32139;DHT22;18644;48.700;9.210;2023-08-06T07:14:59;18.60;63.20
32139;DHT22;18644;48.700;9.210;2023-08-06T07:17:26;18.60;63.30
32139;DHT22;18644;48.700;9.210;2023-08-06T07:19:54;18.60;63.30
32139;DHT22;18644;48.700;9.210;2023-08-06T07:22:21;18.60;63.20
32139;DHT22;18644;48.700;9.210;2023-08-06T07:24:48;18.60;63.20
32139;DHT22;18644;48.700;9.210;2023-08-06T07:27:15;18.50;63.20
32139;DHT22;18644;48.700;9.210;2023-08-06T07:29:42;18.50;63.40
32139;DHT22;18644;48.700;9.210;2023-08-06T07:32:09;18.50;63.60
32139;DHT22;18644;48.700;9.210;2023-08-06T07:34:36;18.50;63.70
32139;DHT22;18644;48.700;9.210;2023-08-06T07:37:05;18.60;63.70
32139;DHT22;18644;48.700;9.210;2023-08-06T07:39:32;18.60;63.80
32139;DHT22;18644;48.700;9.210;2023-08-06T07:41:59;18.60;63.90
32139;DHT22;18644;48.700;9.210;2023-08-06T07:44:27;18.60;63.80
32139;DHT22;18644;48.700;9.210;2023-08-06T07:46:54;18.60;63.70
32139;DHT22;18644;48.700;9.210;2023-08-06T07:49:22;18.60;63.70
32139;DHT22;18644;48.700;9.210;2023-08-06T07:51:48;18.60;63.80
32139;DHT22;18644;48.700;9.210;2023-08-06T07:54:18;18.70;64.10
32139;DHT22;18644;48.700;9.210;2023-08-06T07:56:45;18.70;64.20
32139;DHT22;18644;48.700;9.210;2023-08-06T07:59:12;18.70;64.20
32139;DHT22;18644;48.700;9.210;2023-08-06T08:01:39;18.80;64.30
32139;DHT22;18644;48.700;9.210;2023-08-06T08:04:05;18.90;64.40
32139;DHT22;18644;48.700;9.210;2023-08-06T08:06:33;18.90;64.40
32139;DHT22;18644;48.700;9.210;2023-08-06T08:09:00;19.00;64.20
32139;DHT22;18644;48.700;9.210;2023-08-06T08:11:28;19.00;63.80
32139;DHT22;18644;48.700;9.210;2023-08-06T08:13:55;19.10;64.10
32139;DHT22;18644;48.700;9.210;2023-08-06T08:16:22;19.20;64.80
32139;DHT22;18644;48.700;9.210;2023-08-06T08:18:49;19.30;64.70
32139;DHT22;18644;48.700;9.210;2023-08-06T08:21:16;19.40;64.30
32139;DHT22;18644;48.700;9.210;2023-08-06T08:23:43;19.50;64.20
32139;DHT22;18644;48.700;9.210;2023-08-06T08:26:10;19.60;64.10
32139;DHT22;18644;48.700;9.210;2023-08-06T08:28:39;19.60;63.70
32139;DHT22;18644;48.700;9.210;2023-08-06T08:31:08;19.70;63.10
32139;DHT22;18644;48.700;9.210;2023-08-06T08:33:35;19.70;62.70
32139;DHT22;18644;48.700;9.210;2023-08-06T08:36:02;19.80;62.70
32139;DHT22;18644;48.700;9.210;2023-08-06T08:38:30;19.80;62.70
32139;DHT22;18644;48.700;9.210;2023-08-06T08:40:57;19.80;62.30
32139;DHT22;18644;48.700;9.210;2023-08-06T08:43:24;19.90;62.20
32139;DHT22;18644;48.700;9.210;2023-08-06T08:45:53;19.80;62.00
32139;DHT22;18644;48.700;9.210;2023-08-06T08:48:27;19.90;61.90
32139;DHT22;18644;48.700;9.210;2023-08-06T08:50:55;19.80;61.70
32139;DHT22;18644;48.700;9.210;2023-08-06T08:53:22;19.80;61.70
32139;DHT22;18644;48.700;9.210;2023-08-06T08:55:50;19.80;61.90
32139;DHT22;18644;48.700;9.210;2023-08-06T08:58:17;19.80;62.30
32139;DHT22;18644;48.700;9.210;2023-08-06T09:00:46;19.80;62.50
32139;DHT22;18644;48.700;9.210;2023-08-06T09:03:16;19.90;62.60
32139;DHT22;18644;48.700;9.210;2023-08-06T09:05:44;19.90;62.60
32139;DHT22;18644;48.700;9.210;2023-08-06T09:08:15;19.90;62.80
32139;DHT22;18644;48.700;9.210;2023-08-06T09:10:44;19.90;62.70
32139;DHT22;18644;48.700;9.210;2023-08-06T09:13:15;20.00;62.70
32139;DHT22;18644;48.700;9.210;2023-08-06T09:15:42;20.10;62.80
32139;DHT22;18644;48.700;9.210;2023-08-06T09:18:11;20.10;62.90
32139;DHT22;18644;48.700;9.210;2023-08-06T09:20:39;20.10;62.70
32139;DHT22;18644;48.700;9.210;2023-08-06T09:23:07;20.20;62.60
32139;DHT22;18644;48.700;9.210;2023-08-06T09:25:38;20.30;62.80
32139;DHT22;18644;48.700;9.210;2023-08-06T09:28:06;20.40;63.30
32139;DHT22;18644;48.700;9.210;2023-08-06T09:30:34;20.50;63.40
32139;DHT22;18644;48.700;9.210;2023-08-06T09:33:03;20.60;62.80
32139;DHT22;18644;48.700;9.210;2023-08-06T09:35:30;20.60;62.50
32139;DHT22;18644;48.700;9.210;2023-08-06T09:38:07;20.70;62.40
32139;DHT22;18644;48.700;9.210;2023-08-06T09:40:36;20.80;62.10
32139;DHT22;18644;48.700;9.210;2023-08-06T09:43:03;20.80;62.20
32139;DHT22;18644;48.700;9.210;2023-08-06T09:45:31;20.90;62.20
32139;DHT22;18644;48.700;9.210;2023-08-06T09:48:00;20.90;61.80
32139;DHT22;18644;48.700;9.210;2023-08-06T09:50:29;20.90;61.60
32139;DHT22;18644;48.700;9.210;2023-08-06T09:52:58;20.90;61.20
32139;DHT22;18644;48.700;9.210;2023-08-06T09:55:29;20.90;60.90
32139;DHT22;18644;48.700;9.210;2023-08-06T09:57:56;20.90;60.50
32139;DHT22;18644;48.700;9.210;2023-08-06T10:00:25;20.90;60.20
32139;DHT22;18644;48.700;9.210;2023-08-06T10:02:54;20.90;60.00
32139;DHT22;18644;48.700;9.210;2023-08-06T10:05:22;20.80;59.80
32139;DHT22;18644;48.700;9.210;2023-08-06T10:07:50;20.80;59.90
32139;DHT22;18644;48.700;9.210;2023-08-06T10:10:17;20.70;59.90
32139;DHT22;18644;48.700;9.210;2023-08-06T10:12:49;20.60;59.80
32139;DHT22;18644;48.700;9.210;2023-08-06T10:15:17;20.60;60.00
32139;DHT22;18644;48.700;9.210;2023-08-06T10:17:47;20.50;59.90
32139;DHT22;18644;48.700;9.210;2023-08-06T10:20:17;20.50;59.80
32139;DHT22;18644;48.700;9.210;2023-08-06T10:22:46;20.40;59.70
32139;DHT22;18644;48.700;9.210;2023-08-06T10:25:26;20.20;59.70
32139;DHT22;18644;48.700;9.210;2023-08-06T10:27:58;20.20;60.30
32139;DHT22;18644;48.700;9.210;2023-08-06T10:30:26;20.20;61.10
32139;DHT22;18644;48.700;9.210;2023-08-06T10:32:55;20.10;61.30
32139;DHT22;18644;48.700;9.210;2023-08-06T10:35:35;20.10;61.80
32139;DHT22;18644;48.700;9.210;2023-08-06T10:38:04;20.10;62.20
32139;DHT22;18644;48.700;9.210;2023-08-06T10:40:32;20.20;62.10
32139;DHT22;18644;48.700;9.210;2023-08-06T10:43:02;20.10;62.00
32139;DHT22;18644;48.700;9.210;2023-08-06T10:45:29;20.10;61.70
32139;DHT22;18644;48.700;9.210;2023-08-06T10:47:57;20.10;61.80
32139;DHT22;18644;48.700;9.210;2023-08-06T10:50:24;20.10;61.80
32139;DHT22;18644;48.700;9.210;2023-08-06T10:52:52;20.20;62.00
32139;DHT22;18644;48.700;9.210;2023-08-06T10:55:23;20.20;62.30
32139;DHT22;18644;48.700;9.210;2023-08-06T10:57:51;20.10;62.40
32139;DHT22;18644;48.700;9.210;2023-08-06T11:00:20;20.10;62.20
32139;DHT22;18644;48.700;9.210;2023-08-06T11:02:49;20.20;62.30
32139;DHT22;18644;48.700;9.210;2023-08-06T11:05:16;20.20;62.50
32139;DHT22;18644;48.700;9.210;2023-08-06T11:07:43;20.20;63.10
32139;DHT22;18644;48.700;9.210;2023-08-06T11:10:12;20.30;63.30
32139;DHT22;18644;48.700;9.210;2023-08-06T11:12:39;20.40;63.40
32139;DHT22;18644;48.700;9.210;2023-08-06T11:15:07;20.40;63.00
32139;DHT22;18644;48.700;9.210;2023-08-06T11:17:37;20.50;62.60
32139;DHT22;18644;48.700;9.210;2023-08-06T11:20:06;20.50;62.20
32139;DHT22;18644;48.700;9.210;2023-08-06T11:22:36;20.50;62.10
32139;DHT22;18644;48.700;9.210;2023-08-06T11:25:04;20.40;61.20
32139;DHT22;18644;48.700;9.210;2023-08-06T11:27:32;20.40;60.90
32139;DHT22;18644;48.700;9.210;2023-08-06T11:29:59;20.30;60.50
32139;DHT22;18644;48.700;9.210;2023-08-06T11:32:26;20.20;60.10
32139;DHT22;18644;48.700;9.210;2023-08-06T11:34:55;20.10;60.10
32139;DHT22;18644;48.700;9.210;2023-08-06T11:37:22;20.00;60.20
32139;DHT22;18644;48.700;9.210;2023-08-06T11:39:51;19.90;60.40
32139;DHT22;18644;48.700;9.210;2023-08-06T11:42:18;19.90;60.90
32139;DHT22;18644;48.700;9.210;2023-08-06T11:44:45;19.90;61.10
32139;DHT22;18644;48.700;9.210;2023-08-06T11:47:14;19.80;61.20
32139;DHT22;18644;48.700;9.210;2023-08-06T11:49:44;19.80;60.70
32139;DHT22;18644;48.700;9.210;2023-08-06T11:52:17;19.80;60.50
32139;DHT22;18644;48.700;9.210;2023-08-06T11:54:47;19.80;60.20
32139;DHT22;18644;48.700;9.210;2023-08-06T11:57:15;19.80;60.00
32139;DHT22;18644;48.700;9.210;2023-08-06T11:59:42;19.70;59.70
32139;DHT22;18644;48.700;9.210;2023-08-06T12:02:10;19.70;59.40
32139;DHT22;18644;48.700;9.210;2023-08-06T12:04:59;19.60;59.30
32139;DHT22;18644;48.700;9.210;2023-08-06T12:07:30;19.50;59.10
32139;DHT22;18644;48.700;9.210;2023-08-06T12:09:58;19.40;59.10
32139;DHT22;18644;48.700;9.210;2023-08-06T12:12:25;19.40;59.10
32139;DHT22;18644;48.700;9.210;2023-08-06T12:14:52;19.30;59.40
32139;DHT22;18644;48.700;9.210;2023-08-06T12:17:20;19.30;59.60
32139;DHT22;18644;48.700;9.210;2023-08-06T12:19:47;19.30;59.90
32139;DHT22;18644;48.700;9.210;2023-08-06T12:22:14;19.30;60.00
32139;DHT22;18644;48.700;9.210;2023-08-06T12:24:43;19.30;59.80
32139;DHT22;18644;48.700;9.210;2023-08-06T12:27:10;19.30;59.60
32139;DHT22;18644;48.700;9.210;2023-08-06T12:29:41;19.30;59.40
32139;DHT22;18644;48.700;9.210;2023-08-06T12:32:09;19.30;59.30
32139;DHT22;18644;48.700;9.210;2023-08-06T12:34:37;19.20;59.30
32139;DHT22;18644;48.700;9.210;2023-08-06T12:37:04;19.20;59.30
32139;DHT22;18644;48.700;9.210;2023-08-06T12:39:32;19.20;59.20
32139;DHT22;18644;48.700;9.210;2023-08-06T12:42:01;19.30;59.10
32139;DHT22;18644;48.700;9.210;2023-08-06T12:44:28;19.20;58.90
32139;DHT22;18644;48.700;9.210;2023-08-06T12:46:56;19.20;59.00
32139;DHT22;18644;48.700;9.210;2023-08-06T12:49:24;19.20;59.20
32139;DHT22;18644;48.700;9.210;2023-08-06T12:51:53;19.30;59.40
32139;DHT22;18644;48.700;9.210;2023-08-06T12:54:20;19.30;59.30
32139;DHT22;18644;48.700;9.210;2023-08-06T12:56:48;19.40;59.30
32139;DHT22;18644;48.700;9.210;2023-08-06T12:59:17;19.40;59.10
32139;DHT22;18644;48.700;9.210;2023-08-06T13:01:45;19.40;59.00
32139;DHT22;18644;48.700;9.210;2023-08-06T13:04:12;19.40;59.00
32139;DHT22;18644;48.700;9.210;2023-08-06T13:06:40;19.40;58.80
32139;DHT22;18644;48.700;9.210;2023-08-06T13:09:07;19.40;58.70
32139;DHT22;18644;48.700;9.210;2023-08-06T13:11:34;19.50;58.50
32139;DHT22;18644;48.700;9.210;2023-08-06T13:14:04;19.40;58.40
32139;DHT22;18644;48.700;9.210;2023-08-06T13:16:34;19.40;58.30
32139;DHT22;18644;48.700;9.210;2023-08-06T13:19:02;19.40;58.30
32139;DHT22;18644;48.700;9.210;2023-08-06T13:21:32;19.50;58.40
32139;DHT22;18644;48.700;9.210;2023-08-06T13:24:00;19.50;58.40
32139;DHT22;18644;48.700;9.210;2023-08-06T13:26:28;19.50;58.60
32139;DHT22;18644;48.700;9.210;2023-08-06T13:28:57;19.60;58.60
32139;DHT22;18644;48.700;9.210;2023-08-06T13:31:24;19.60;58.20
32139;DHT22;18644;48.700;9.210;2023-08-06T13:33:53;19.70;58.10
32139;DHT22;18644;48.700;9.210;2023-08-06T13:36:21;19.80;58.10
32139;DHT22;18644;48.700;9.210;2023-08-06T13:38:48;19.80;58.20
32139;DHT22;18644;48.700;9.210;2023-08-06T13:41:15;19.90;58.10
32139;DHT22;18644;48.700;9.210;2023-08-06T13:43:42;19.90;57.70
32139;DHT22;18644;48.700;9.210;2023-08-06T13:46:09;19.90;57.40
32139;DHT22;18644;48.700;9.210;2023-08-06T13:48:40;19.90;57.10
32139;DHT22;18644;48.700;9.210;2023-08-06T13:51:09;19.90;57.00
32139;DHT22;18644;48.700;9.210;2023-08-06T13:53:36;19.90;56.80
32139;DHT22;18644;48.700;9.210;2023-08-06T13:56:04;20.00;56.70
32139;DHT22;18644;48.700;9.210;2023-08-06T13:58:31;19.90;56.60
32139;DHT22;18644;48.700;9.210;2023-08-06T14:00:58;19.90;56.50
32139;DHT22;18644;48.700;9.210;2023-08-06T14:03:25;19.90;56.50
32139;DHT22;18644;48.700;9.210;2023-08-06T14:05:53;20.00;56.60
32139;DHT22;18644;48.700;9.210;2023-08-06T14:08:23;20.00;56.70
32139;DHT22;18644;48.700;9.210;2023-08-06T14:10:50;20.00;57.10
32139;DHT22;18644;48.700;9.210;2023-08-06T14:13:18;20.10;56.40
32139;DHT22;18644;48.700;9.210;2023-08-06T14:15:45;20.10;56.20
32139;DHT22;18644;48.700;9.210;2023-08-06T14:18:12;20.20;56.10
32139;DHT22;18644;48.700;9.210;2023-08-06T14:20:40;20.20;56.10
32139;DHT22;18644;48.700;9.210;2023-08-06T14:23:06;20.30;55.90
32139;DHT22;18644;48.700;9.210;2023-08-06T14:25:35;20.30;55.90
32139;DHT22;18644;48.700;9.210;2023-08-06T14:28:02;20.30;55.80
32139;DHT22;18644;48.700;9.210;2023-08-06T14:30:31;20.40;55.90
32139;DHT22;18644;48.700;9.210;2023-08-06T14:32:58;20.40;55.70
32139;DHT22;18644;48.700;9.210;2023-08-06T14:35:26;20.40;55.50
32139;DHT22;18644;48.700;9.210;2023-08-06T14:37:53;20.40;55.40
32139;DHT22;18644;48.700;9.210;2023-08-06T14:40:19;20.30;55.40
32139;DHT22;18644;48.700;9.210;2023-08-06T14:42:48;20.30;55.50
32139;DHT22;18644;48.700;9.210;2023-08-06T14:45:15;20.20;55.80
32139;DHT22;18644;48.700;9.210;2023-08-06T14:47:42;20.10;55.80
32139;DHT22;18644;48.700;9.210;2023-08-06T14:50:09;20.10;55.90
32139;DHT22;18644;48.700;9.210;2023-08-06T14:52:36;20.00;56.20
32139;DHT22;18644;48.700;9.210;2023-08-06T14:55:04;19.90;56.40
32139;DHT22;18644;48.700;9.210;2023-08-06T14:57:31;19.80;56.60
32139;DHT22;18644;48.700;9.210;2023-08-06T14:59:59;19.70;56.90
32139;DHT22;18644;48.700;9.210;2023-08-06T15:02:26;19.70;57.30
32139;DHT22;18644;48.700;9.210;2023-08-06T15:04:53;19.60;57.50
32139;DHT22;18644;48.700;9.210;2023-08-06T15:07:20;19.60;57.80
32139;DHT22;18644;48.700;9.210;2023-08-06T15:09:47;19.60;57.80
32139;DHT22;18644;48.700;9.210;2023-08-06T15:12:14;19.60;57.90
32139;DHT22;18644;48.700;9.210;2023-08-06T15:14:42;19.60;57.80
32139;DHT22;18644;48.700;9.210;2023-08-06T15:17:11;19.60;58.00
32139;DHT22;18644;48.700;9.210;2023-08-06T15:19:37;19.60;58.30
32139;DHT22;18644;48.700;9.210;2023-08-06T15:22:04;19.70;58.60
32139;DHT22;18644;48.700;9.210;2023-08-06T15:24:32;19.80;59.00
32139;DHT22;18644;48.700;9.210;2023-08-06T15:26:59;19.90;59.00
32139;DHT22;18644;48.700;9.210;2023-08-06T15:29:26;20.10;58.90
32139;DHT22;18644;48.700;9.210;2023-08-06T15:31:53;20.20;58.80
32139;DHT22;18644;48.700;9.210;2023-08-06T15:34:21;20.40;58.50